M I D A S
Marine Information and Data Acquisition System
Tripno 1247 of the Zeeleeuw from 2007-04-18 07:13:33 to 2007-04-18 10:57:47
Back to CruiseResearch ActivitiesStationsMapUnderway DataData graphs

EquipmentUnitsComment
TimeDGPSUTC
LatitudeDGPSDM.mWGS84
LongitudeDGPSDM.mWGS84
TemperatureSBE03/SBE38deg celciusITS90
ConductivitySBE21S/mITS90
SalinitySBE21 Practical Salinity Units
ChlorophylAChelsea fluorimeterg/lCalibrated in Aceton
Missing or incorrect values are displayed as -999
Sea surface data collected by the RV Zeeleeuw from 2007-04-18 07:13:55 to 2007-04-18 12:46:31
Time Latitude Longitude Temperature Conductivity Salinity ChlorophylA
2007-04-18 07:15:00 51°13.603 2°56.064 19.8855 0.060151 0.357366 -2.871232
2007-04-18 07:16:01 51°13.63 2°55.975 19.8994 0.060151 0.35746 -2.871232
2007-04-18 07:17:01 51°13.659 2°55.885 19.8869 0.060151 0.357484 -2.871232
2007-04-18 07:18:01 51°13.676 2°55.809 19.8784 0.060151 0.357632 -2.871232
2007-04-18 07:19:01 51°13.68 2°55.774 19.8728 0.060151 0.357702 -2.871232
2007-04-18 07:20:01 51°13.681 2°55.757 19.8743 0.060151 0.357718 -2.871232
2007-04-18 07:21:01 51°13.692 2°55.759 19.8827 0.060151 0.357788 -2.871232
2007-04-18 07:22:01 51°13.715 2°55.751 19.8956 0.060151 0.357866 -2.871232
2007-04-18 07:23:01 51°13.764 2°55.698 19.8488 0.060151 0.357921 -2.871232
2007-04-18 07:24:01 51°13.846 2°55.625 19.8606 0.060151 0.357937 -2.871232
2007-04-18 07:25:01 51°13.942 2°55.546 19.8573 0.060048 0.357296 -2.871232
2007-04-18 07:26:01 51°14.048 2°55.482 19.8882 0.060048 0.357312 -2.871232
2007-04-18 07:27:01 51°14.154 2°55.423 19.8979 0.060048 0.357312 -2.871232
2007-04-18 07:28:01 51°14.243 2°55.33 19.9607 0.060151 0.357953 -2.871232
2007-04-18 07:29:01 51°14.319 2°55.176 19.8606 0.060151 0.357968 -2.871232
2007-04-18 07:30:01 51°14.403 2°54.934 19.2595 0.060151 0.357968 -2.871232
2007-04-18 07:31:01 51°14.425 2°54.633 19.3998 0.060151 0.35796 -2.871232
2007-04-18 07:32:01 51°14.378 2°54.31 19.396 0.060151 0.35796 -2.871232
2007-04-18 07:33:01 51°14.263 2°54.008 19.2799 0.060151 0.357953 -2.871232
2007-04-18 07:34:01 51°14.201 2°53.663 19.4549 0.060048 0.357304 -2.871232
2007-04-18 07:35:01 51°14.113 2°53.32 19.3909 0.060151 0.357968 -2.871232
2007-04-18 07:36:01 51°14.016 2°52.972 19.4712 0.060048 0.357515 -2.871232
2007-04-18 07:37:01 51°13.9 2°52.636 19.4599 0.060048 0.357406 -2.871232
2007-04-18 07:38:01 51°13.779 2°52.305 19.4266 0.060048 0.357351 -2.871232
2007-04-18 07:39:01 51°13.654 2°51.975 19.4486 0.060048 0.357367 -2.871232
2007-04-18 07:40:00 51°13.527 2°51.653 19.4939 0.060048 0.357289 -2.871232
2007-04-18 07:41:01 51°13.397 2°51.317 19.5123 0.060048 0.357218 -2.871232
2007-04-18 07:42:01 51°13.269 2°50.987 19.5197 0.060048 0.357148 -2.871232
2007-04-18 07:43:01 51°13.139 2°50.655 19.5385 0.060048 0.357195 -2.871232
2007-04-18 07:44:01 51°13.008 2°50.319 19.5478 0.060048 0.357054 -2.871232
2007-04-18 07:45:01 51°12.875 2°49.984 19.5614 0.060048 0.356914 -2.871232
2007-04-18 07:46:01 51°12.743 2°49.648 19.5679 0.060151 0.357413 -2.871232
2007-04-18 07:47:01 51°12.627 2°49.299 19.5868 0.060151 0.357327 -2.871232
2007-04-18 07:48:01 51°12.501 2°48.961 19.5836 0.060151 0.35725 -2.871232
2007-04-18 07:49:01 51°12.378 2°48.622 19.6134 0.060151 0.357211 -2.871232
2007-04-18 07:50:01 51°12.257 2°48.284 19.6125 0.060151 0.357179 -2.871232
2007-04-18 07:51:01 51°12.16 2°47.928 19.6342 0.060151 0.357086 -2.871232
2007-04-18 07:52:01 51°12.102 2°47.598 19.6605 0.060151 0.357024 -2.871232
2007-04-18 07:53:01 51°12.039 2°47.469 19.6543 0.060151 0.356961 -2.871232
2007-04-18 07:54:01 51°12.001 2°47.417 19.6595 0.060151 0.356946 -2.871232
2007-04-18 07:55:01 51°11.964 2°47.375 19.6739 0.060151 0.356884 -2.871232
2007-04-18 07:56:01 51°11.898 2°47.319 19.6792 0.060151 0.35686 -2.871232
2007-04-18 07:57:01 51°11.823 2°47.217 19.6928 0.060151 0.356829 -2.871232
2007-04-18 07:58:01 51°11.778 2°47.107 19.692 0.060151 0.356806 -2.871232
2007-04-18 07:59:01 51°11.746 2°47.014 19.7013 0.060151 0.356775 -2.871232
2007-04-18 08:00:01 51°11.721 2°46.937 19.7106 0.060151 0.356759 -2.871232
2007-04-18 08:01:01 51°11.695 2°46.872 19.7142 0.060151 0.356767 -2.871232
2007-04-18 08:02:01 51°11.669 2°46.808 19.724 0.060151 0.356798 -2.871232
2007-04-18 08:03:01 51°11.642 2°46.738 19.7302 0.060151 0.356891 -2.871232
2007-04-18 08:04:01 51°11.615 2°46.665 19.7402 0.060151 0.356915 -2.871232
2007-04-18 08:05:01 51°11.59 2°46.591 19.7474 0.060151 0.356915 -2.871232
2007-04-18 08:06:01 51°11.564 2°46.516 19.7505 0.060151 0.357086 -2.871232
2007-04-18 08:07:01 51°11.538 2°46.441 19.7582 0.060151 0.357031 -2.871232
2007-04-18 08:08:01 51°11.514 2°46.364 19.7638 0.060151 0.35707 -2.871232
2007-04-18 08:09:01 51°11.49 2°46.288 19.7691 0.060048 0.356548 -2.871232
2007-04-18 08:10:01 51°11.467 2°46.21 19.7715 0.060048 0.356626 -2.871232
2007-04-18 08:11:01 51°11.445 2°46.131 19.777 0.060048 0.356712 -2.871232
2007-04-18 08:12:01 51°11.427 2°46.05 19.7815 0.060048 0.356821 -2.871232
2007-04-18 08:13:01 51°11.416 2°45.971 19.788 0.059945 0.356344 -2.871232
2007-04-18 08:14:01 51°11.415 2°45.897 19.7933 0.059945 0.356414 -2.871232
2007-04-18 08:15:01 51°11.429 2°45.824 19.7968 0.060048 0.357086 -2.871232
2007-04-18 08:16:01 51°11.448 2°45.734 19.7987 0.060048 0.357086 -2.871232
2007-04-18 08:17:01 51°11.452 2°45.638 19.8029 0.059945 0.3565 -2.871232
2007-04-18 08:18:01 51°11.454 2°45.546 19.8081 0.059945 0.356547 -2.871232
2007-04-18 08:19:01 51°11.457 2°45.46 19.809 0.059945 0.356609 -2.871232
2007-04-18 08:20:01 51°11.466 2°45.381 19.8152 0.059945 0.356695 -2.871232
2007-04-18 08:21:01 51°11.474 2°45.304 13.513 0.060357 0.359304 -2.871232
2007-04-18 08:22:01 51°11.482 2°45.228 14.1106 0.062518 0.372659 -2.871232
2007-04-18 08:23:01 51°11.49 2°45.155 14.655 0.061694 0.367643 -2.871232
2007-04-18 08:24:01 51°11.504 2°45.096 14.7039 0.06118 0.364546 -2.871232
2007-04-18 08:25:01 51°11.517 2°45.06 14.9684 0.060871 0.362708 -2.871232
2007-04-18 08:26:01 51°11.524 2°45.026 15.3894 0.060665 0.361473 -2.871232
2007-04-18 08:27:01 51°11.526 2°44.991 15.4852 0.060562 0.360934 -2.871232
2007-04-18 08:28:01 51°11.547 2°44.959 15.6187 0.060459 0.360355 -2.871232
2007-04-18 08:29:01 51°11.555 2°45.04 15.6649 0.060459 0.360419 -2.871232
2007-04-18 08:30:01 51°11.529 2°45.244 15.4095 0.060357 0.359856 -2.871232
2007-04-18 08:31:01 51°11.538 2°45.416 15.6327 0.060254 0.359277 -2.871232
2007-04-18 08:32:01 51°11.56 2°45.429 15.9363 0.060151 0.358745 -2.871232
2007-04-18 08:33:01 51°11.573 2°45.401 15.7749 0.060151 0.358879 -2.871232
2007-04-18 08:34:01 51°11.58 2°45.364 15.5878 0.060151 0.359076 -2.871232
2007-04-18 08:35:01 51°11.583 2°45.324 15.2095 0.060048 0.35852 -2.871232
2007-04-18 08:36:01 51°11.583 2°45.284 15.9895 0.059945 0.357932 -2.871232
2007-04-18 08:37:01 51°11.582 2°45.247 15.5759 0.059945 0.357995 -2.871232
2007-04-18 08:38:01 51°11.579 2°45.211 15.4227 0.059945 0.358011 -2.871232
2007-04-18 08:39:01 51°11.576 2°45.178 16.9677 0.059945 0.358034 -2.871232
2007-04-18 08:40:01 51°11.571 2°45.147 15.9387 0.059842 0.357501 -2.871232
2007-04-18 08:41:01 51°11.568 2°45.116 16.0617 0.059842 0.357596 -2.871232
2007-04-18 08:42:01 51°11.586 2°45.03 16.1886 0.059842 0.357674 -2.871232
2007-04-18 08:43:01 51°11.598 2°44.771 15.65 0.059739 0.357117 -2.871232
2007-04-18 08:44:01 51°11.622 2°44.39 16.5869 0.059842 0.357777 -2.871232
2007-04-18 08:45:01 51°11.634 2°44.014 20.2716 0.060151 0.359692 -2.871232
2007-04-18 08:46:01 51°11.619 2°43.644 24.0674 0.060048 0.359088 -2.871232
2007-04-18 08:47:01 51°11.593 2°43.298 22.6564 0.059945 0.358152 -2.871232
2007-04-18 08:48:01 51°11.567 2°43.06 23.8774 0.059842 0.357926 -2.871232
2007-04-18 08:49:01 51°11.55 2°42.825 29.8178 0.059842 0.357981 -2.871232
2007-04-18 08:50:01 51°11.53 2°42.623 29.5762 0.059842 0.358029 -2.871232
2007-04-18 08:51:01 51°11.503 2°42.517 32.3641 0.059739 0.3574 -2.871232
2007-04-18 08:52:01 51°11.49 2°42.427 33.1075 0.059945 0.358681 -2.871232
2007-04-18 08:53:01 51°11.51 2°42.329 34.4899 0.060048 0.359341 -2.871232
2007-04-18 08:54:01 51°11.534 2°42.225 35.258 0.059945 0.358902 -2.871232
2007-04-18 08:55:01 51°11.55 2°42.136 33.9554 0.059945 0.35891 -2.871232
2007-04-18 08:56:01 51°11.555 2°42.055 36.6529 0.059842 0.358297 -2.871232
2007-04-18 08:57:01 51°11.544 2°41.969 40.8037 0.059842 0.358328 -2.871232
2007-04-18 08:58:01 51°11.523 2°41.88 37.7239 0.059842 0.358368 -2.871232
2007-04-18 08:59:01 51°11.5 2°41.801 36.5363 0.059739 0.357826 -2.871232
2007-04-18 09:00:01 51°11.477 2°41.728 41.1725 0.059842 0.35851 -2.871232
2007-04-18 09:01:01 51°11.451 2°41.658 44.1105 0.059739 0.357912 -2.871232
2007-04-18 09:02:01 51°11.424 2°41.588 43.0197 0.059739 0.357936 -2.871232
2007-04-18 09:03:01 51°11.392 2°41.515 45.1049 0.059739 0.357976 -2.871232
2007-04-18 09:04:01 51°11.357 2°41.444 45.0336 0.059636 0.357401 -2.871232
2007-04-18 09:05:01 51°11.318 2°41.377 43.9872 0.059739 0.358055 -2.871232
2007-04-18 09:06:01 51°11.276 2°41.316 46.9481 0.059636 0.357465 -2.871232
2007-04-18 09:07:01 51°11.234 2°41.256 45.7379 0.059739 0.358118 -2.871232
2007-04-18 09:08:01 51°11.192 2°41.197 47.8553 0.059636 0.357512 -2.871232
2007-04-18 09:09:01 51°11.151 2°41.138 48.9174 0.059636 0.357575 -2.871232
2007-04-18 09:10:01 51°11.109 2°41.082 49.3681 0.059739 0.358284 -2.871232
2007-04-18 09:11:01 51°11.067 2°41.027 52.0272 0.059739 0.358331 -2.871232
2007-04-18 09:12:01 51°11.026 2°40.97 49.2108 0.059739 0.358339 -2.871232
2007-04-18 09:13:01 51°10.984 2°40.916 51.0033 0.059739 0.358458 -2.871232
2007-04-18 09:14:01 51°10.942 2°40.863 52.982 0.059636 0.357844 -2.871232
2007-04-18 09:15:01 51°10.896 2°40.824 52.6147 0.059636 0.357883 -2.871232
2007-04-18 09:16:01 51°10.849 2°40.786 53.0056 0.059636 0.35797 -2.871232
2007-04-18 09:17:01 51°10.802 2°40.743 51.0963 0.059533 0.35749 -2.871232
2007-04-18 09:18:01 51°10.762 2°40.691 53.5091 0.059533 0.357514 -2.871232
2007-04-18 09:19:01 51°10.728 2°40.631 55.1068 0.059533 0.357577 -2.871232
2007-04-18 09:20:01 51°10.708 2°40.562 57.4888 0.059533 0.357672 -2.871232
2007-04-18 09:21:01 51°10.7 2°40.501 55.9229 0.05943 0.357096 -2.871232
2007-04-18 09:22:01 51°10.691 2°40.452 57.2574 0.05943 0.357167 -2.871232
2007-04-18 09:23:01 51°10.679 2°40.41 57.1894 0.059533 0.357886 -2.871232
2007-04-18 09:24:01 51°10.678 2°40.337 57.8432 0.05943 0.357428 -2.871232
2007-04-18 09:25:01 51°10.716 2°40.298 58.0569 0.05943 0.357468 -2.871232
2007-04-18 09:26:01 51°10.786 2°40.365 57.8413 0.05943 0.357492 -2.871232
2007-04-18 09:27:01 51°10.918 2°40.572 58.7966 0.059533 0.358108 -2.871232
2007-04-18 09:28:01 51°11.062 2°40.798 56.977 0.05943 0.357539 -2.871232
2007-04-18 09:29:01 51°11.205 2°41.027 58.3518 0.05943 0.357619 -2.871232
2007-04-18 09:30:01 51°11.286 2°41.244 56.7072 0.05943 0.357817 -2.871232
2007-04-18 09:31:01 51°11.292 2°41.343 59.8844 0.059328 0.357216 -2.871232
2007-04-18 09:32:01 51°11.295 2°41.361 59.053 0.059328 0.357319 -2.871232
2007-04-18 09:33:01 51°11.296 2°41.366 59.8825 0.059328 0.357446 -2.871232
2007-04-18 09:34:01 51°11.294 2°41.364 59.7711 0.059328 0.357565 -2.871232
2007-04-18 09:35:01 51°11.29 2°41.359 62.5534 0.059328 0.357637 -2.871232
2007-04-18 09:36:01 51°11.283 2°41.352 61.3433 0.059225 0.357059 -2.871232
2007-04-18 09:37:01 51°11.275 2°41.344 59.6034 0.059225 0.357146 -2.871232
2007-04-18 09:38:01 51°11.267 2°41.335 59.6997 0.059225 0.35721 -2.871232
2007-04-18 09:39:01 51°11.265 2°41.328 62.6747 0.059225 0.357258 -2.871232
2007-04-18 09:40:01 51°11.291 2°41.323 62.4867 0.059225 0.357297 -2.871232
2007-04-18 09:41:01 51°11.316 2°41.314 62.7195 0.059225 0.357401 -2.871232
2007-04-18 09:42:01 51°11.335 2°41.304 63.22 0.059225 0.357385 -2.871232
2007-04-18 09:43:01 51°11.346 2°41.292 66.0916 0.059225 0.357448 -2.871232
2007-04-18 09:44:01 51°11.352 2°41.28 62.8279 0.059225 0.357472 -2.871232
2007-04-18 09:45:01 51°11.352 2°41.268 64.5631 0.059225 0.357528 -2.871232
2007-04-18 09:46:01 51°11.355 2°41.258 63.5207 0.059225 0.357584 -2.871232
2007-04-18 09:47:01 51°11.377 2°41.302 63.9846 0.059122 0.356926 -2.871232
2007-04-18 09:48:01 51°11.358 2°41.497 62.7427 0.059122 0.357037 -2.871232
2007-04-18 09:49:01 51°11.363 2°41.789 63.2395 0.059122 0.357116 -2.871232
2007-04-18 09:50:01 51°11.367 2°42.097 64.2733 0.059122 0.357172 -2.871232
2007-04-18 09:51:01 51°11.37 2°42.408 66.9241 0.059122 0.35722 -2.871232
2007-04-18 09:52:01 51°11.402 2°42.725 65.2151 0.059122 0.357244 -2.871232
2007-04-18 09:53:01 51°11.44 2°43.06 63.7441 0.059122 0.357347 -2.871232
2007-04-18 09:54:01 51°11.476 2°43.398 65.368 0.059019 0.356768 -2.871232
2007-04-18 09:55:01 51°11.513 2°43.737 65.8939 0.059122 0.357419 -2.871232
2007-04-18 09:56:01 51°11.548 2°44.076 67.4907 0.059122 0.357443 -2.871232
2007-04-18 09:57:01 51°11.584 2°44.414 69.3024 0.059122 0.357491 -2.871232
2007-04-18 09:58:01 51°11.619 2°44.752 67.2529 0.059122 0.357523 -2.871232
2007-04-18 09:59:01 51°11.654 2°45.09 64.3793 0.059122 0.357523 -2.871232
2007-04-18 10:00:01 51°11.688 2°45.428 65.0304 0.059019 0.356935 -2.871232
2007-04-18 10:01:01 51°11.727 2°45.763 66.3854 0.059122 0.357594 -2.871232
2007-04-18 10:02:01 51°11.786 2°46.086 57.8556 0.059019 0.356983 -2.871232
2007-04-18 10:03:01 51°11.844 2°46.404 22.0386 0.00077 0.010394 -2.871232
2007-04-18 10:04:01 51°11.903 2°46.722 24.1384 0.00077 0.010398 -2.871232
2007-04-18 10:05:01 51°11.998 2°47.018 25.433 0.000667 0.00995 -2.871232
2007-04-18 10:06:01 51°12.108 2°47.306 26.0981 0.000667 0.009956 -2.871232
2007-04-18 10:07:01 51°12.215 2°47.6 26.2974 0.000564 0.009523 -2.871232
2007-04-18 10:08:01 51°12.319 2°47.896 26.348 0.000564 0.009531 -2.871232
2007-04-18 10:09:01 51°12.422 2°48.194 26.6425 0.000564 0.009538 -2.871232
2007-04-18 10:10:01 51°12.524 2°48.493 26.7526 0.000564 0.009546 -2.871232
2007-04-18 10:11:01 51°12.626 2°48.794 26.5584 0.000564 0.009554 -2.871232
2007-04-18 10:12:01 51°12.728 2°49.097 26.6477 0.000564 0.009561 -2.871232
2007-04-18 10:13:01 51°12.83 2°49.4 26.7899 0.000564 0.009568 -2.871232
2007-04-18 10:14:01 51°12.931 2°49.703 26.538 0.000564 0.009577 -2.871232
2007-04-18 10:15:01 51°13.032 2°50.006 26.5914 0.000564 0.009584 -2.871232
2007-04-18 10:16:01 51°13.134 2°50.31 26.3623 0.000461 0.009172 -2.871232
2007-04-18 10:17:01 51°13.235 2°50.613 26.5502 0.000461 0.00918 -2.871232
2007-04-18 10:18:01 51°13.335 2°50.916 26.2863 0.000461 0.009188 -2.871232
2007-04-18 10:19:01 51°13.436 2°51.219 26.2373 0.000461 0.009197 -2.871232
2007-04-18 10:20:01 51°13.535 2°51.521 26.2641 0.000461 0.009205 -2.871232
2007-04-18 10:21:01 51°13.634 2°51.825 26.1785 0.000461 0.009213 -2.871232
2007-04-18 10:22:01 51°13.734 2°52.128 26.2113 0.000461 0.009221 -2.871232
2007-04-18 10:23:01 51°13.833 2°52.431 26.0605 0.000461 0.009229 -2.871232
2007-04-18 10:24:02 51°13.92 2°52.705 26.1891 0.000461 0.009237 -2.871232
2007-04-18 10:25:01 51°13.938 2°52.835 26.0187 0.000461 0.009245 -2.871232
2007-04-18 10:26:02 51°13.93 2°52.846 25.8269 0.000461 0.009253 -2.871232
2007-04-18 10:27:01 51°13.922 2°52.85 25.8516 0.000461 0.009262 -2.871232
2007-04-18 10:28:01 51°13.911 2°52.856 25.8762 0.000461 0.00927 -2.871232
2007-04-18 10:29:01 51°13.9 2°52.862 25.8449 0.000461 0.009278 -2.871232
2007-04-18 10:30:01 51°13.887 2°52.867 25.6765 0.000461 0.009287 -2.871232
2007-04-18 10:31:01 51°13.876 2°52.87 25.6097 0.000461 0.009295 -2.871232
2007-04-18 10:32:01 51°13.866 2°52.871 25.6338 0.000461 0.009304 -2.871232
2007-04-18 10:33:01 51°13.856 2°52.873 25.6334 0.000461 0.009312 -2.871232
2007-04-18 10:34:01 51°13.847 2°52.874 25.6146 0.000461 0.009321 -2.871232
2007-04-18 10:35:01 51°13.835 2°52.876 25.6435 0.000461 0.00933 -2.871232
2007-04-18 10:36:01 51°13.783 2°52.875 25.4418 0.000461 0.009339 -2.871232
2007-04-18 10:37:01 51°13.725 2°52.943 25.4847 0.000461 0.009348 -2.871232
2007-04-18 10:38:01 51°13.71 2°53.039 25.4124 0.000461 0.009356 -2.871232
2007-04-18 10:39:01 51°13.713 2°53.137 25.4581 0.000461 0.009366 -2.871232
2007-04-18 10:40:01 51°13.717 2°53.237 25.3323 0.000461 0.009374 -2.871232
2007-04-18 10:41:01 51°13.734 2°53.328 25.2516 0.000461 0.009383 -2.871232
2007-04-18 10:42:02 51°13.767 2°53.405 25.2402 0.000461 0.009393 -2.871232
2007-04-18 10:43:01 51°13.801 2°53.481 25.291 0.000461 0.009401 -2.871232
2007-04-18 10:44:02 51°13.837 2°53.562 25.1522 0.000461 0.00941 -2.871232
2007-04-18 10:45:01 51°13.875 2°53.64 25.158 0.000461 0.009417 -2.871232
2007-04-18 10:46:01 51°13.914 2°53.718 25.0368 0.000461 0.009425 -2.871232
2007-04-18 10:47:02 51°13.954 2°53.799 25.1099 0.000461 0.009433 -2.871232
2007-04-18 10:48:01 51°14 2°53.868 24.9834 0.000358 0.009055 -2.871232
2007-04-18 10:49:01 51°14.047 2°53.936 24.9158 0.000461 0.009447 -2.871232
2007-04-18 10:50:01 51°14.097 2°53.999 24.9304 0.000461 0.009454 -2.871232
2007-04-18 10:51:01 51°14.15 2°54.057 24.8788 0.000358 0.009078 -2.871232
2007-04-18 10:52:01 51°14.204 2°54.11 24.7386 0.000358 0.009085 -2.871232
2007-04-18 10:53:01 51°14.284 2°54.179 24.9658 0.000461 0.009476 -2.871232
2007-04-18 10:54:01 51°14.402 2°54.388 24.8232 0.000358 0.009099 -2.871232
2007-04-18 10:55:01 51°14.465 2°54.592 24.7958 0.000358 0.009105 -2.871232
2007-04-18 10:56:01 51°14.453 2°54.817 25.0974 0.000358 0.009114 -2.871232
2007-04-18 10:57:01 51°14.382 2°55.027 24.9418 0.000358 0.00912 -2.871232
2007-04-18 10:58:02 51°14.302 2°55.201 24.8825 0.000358 0.009126 -2.871232
2007-04-18 10:59:01 51°14.239 2°55.288 24.8038 0.000358 0.009131 -2.871232
2007-04-18 11:00:01 51°14.2 2°55.336 24.7348 0.000358 0.009138 -2.871232
2007-04-18 11:01:01 51°14.171 2°55.373 24.6968 0.000358 0.009146 -2.871232
2007-04-18 11:02:02 51°14.133 2°55.405 24.6406 0.000358 0.009153 -2.871232
2007-04-18 11:03:01 51°14.091 2°55.436 24.5973 0.000358 0.00916 -2.871232
2007-04-18 11:04:01 51°14.041 2°55.457 24.5113 0.000358 0.009161 -2.871232
2007-04-18 11:05:02 51°13.996 2°55.464 24.4871 0.000358 0.009172 -2.871232
2007-04-18 11:06:01 51°13.988 2°55.465 24.4243 0.000358 0.009184 -2.871232
2007-04-18 11:07:02 51°13.987 2°55.464 24.3985 0.000358 0.009196 -2.871232
2007-04-18 11:08:01 51°13.988 2°55.463 24.333 0.000461 0.009584 -2.871232
2007-04-18 11:09:02 51°13.988 2°55.462 24.316 0.000461 0.009594 -2.871232
2007-04-18 11:10:01 51°13.989 2°55.46 24.3002 0.000461 0.009602 -2.871232
2007-04-18 11:11:01 51°13.989 2°55.459 24.2187 0.000461 0.00961 -2.871232
2007-04-18 11:12:02 51°13.991 2°55.46 24.1779 0.000461 0.009618 -2.871232
2007-04-18 11:13:01 51°13.994 2°55.46 24.1483 0.000461 0.009626 -2.871232
2007-04-18 11:14:02 51°13.995 2°55.458 24.0822 0.000461 0.009633 -2.871232
2007-04-18 11:15:01 51°13.995 2°55.459 24.0782 0.000358 0.009266 -2.871232
2007-04-18 11:16:01 51°13.996 2°55.458 23.9926 0.000461 0.009648 -2.871232
2007-04-18 11:17:01 51°13.994 2°55.458 23.9782 0.000461 0.009663 -2.871232
2007-04-18 11:18:02 51°13.993 2°55.458 23.933 0.000358 0.00929 -2.871232
2007-04-18 11:19:01 51°13.993 2°55.458 23.9118 0.000358 0.009297 -2.871232
2007-04-18 11:20:01 51°13.992 2°55.459 23.8788 0.000358 0.009305 -2.871232
2007-04-18 11:21:02 51°13.992 2°55.459 23.8298 0.000358 0.009312 -2.871232
2007-04-18 11:22:01 51°13.992 2°55.459 23.8017 0.000358 0.00932 -2.871232
2007-04-18 11:23:02 51°13.992 2°55.459 23.7397 0.000358 0.009327 -2.871232
2007-04-18 11:24:01 51°13.991 2°55.459 23.7179 0.000358 0.009334 -2.871232
2007-04-18 11:25:02 51°13.991 2°55.459 23.7006 0.000358 0.009342 -2.871232
2007-04-18 11:26:01 51°13.991 2°55.459 23.6465 0.000358 0.009349 -2.871232
2007-04-18 11:27:02 51°13.991 2°55.458 23.6303 0.000358 0.009356 -2.871232
2007-04-18 11:28:02 51°13.991 2°55.459 23.5935 0.000358 0.009363 -2.871232
2007-04-18 11:29:02 51°13.991 2°55.459 23.5738 0.000358 0.00937 -2.871232
2007-04-18 11:30:01 51°13.991 2°55.459 23.5382 0.000358 0.009377 -2.871232
2007-04-18 11:31:02 51°13.991 2°55.459 23.5068 0.000358 0.009383 -2.871232
2007-04-18 11:32:02 51°13.991 2°55.459 23.4779 0.000358 0.00939 -2.871232
2007-04-18 11:33:01 51°13.992 2°55.459 23.4424 0.000358 0.009396 -2.871232
2007-04-18 11:34:01 51°13.992 2°55.459 23.4121 0.000358 0.009403 -2.871232
2007-04-18 11:35:02 51°13.992 2°55.459 23.3725 0.000358 0.00941 -2.871232
2007-04-18 11:36:01 51°13.991 2°55.459 23.3495 0.000358 0.009416 -2.871232
2007-04-18 11:37:01 51°13.992 2°55.46 23.3192 0.000358 0.009422 -2.871232
2007-04-18 11:38:02 51°13.992 2°55.459 23.3011 0.000358 0.009429 -2.871232
2007-04-18 11:39:01 51°13.992 2°55.459 23.2756 0.000358 0.009435 -2.871232
2007-04-18 11:40:02 51°13.991 2°55.459 23.2205 0.000358 0.009441 -2.871232
2007-04-18 11:41:02 51°13.991 2°55.459 23.2003 0.000358 0.009447 -2.871232
2007-04-18 11:42:01 51°13.991 2°55.459 23.1738 0.000358 0.009454 -2.871232
2007-04-18 11:43:01 51°13.991 2°55.459 23.1343 0.000358 0.00946 -2.871232
2007-04-18 11:44:01 51°13.991 2°55.459 23.1367 0.000358 0.009466 -2.871232
2007-04-18 11:45:01 51°13.991 2°55.46 23.094 0.000358 0.009472 -2.871232
2007-04-18 11:46:01 51°13.992 2°55.46 23.071 0.000358 0.009478 -2.871232
2007-04-18 11:47:01 51°13.991 2°55.46 23.0345 0.000358 0.009484 -2.871232
2007-04-18 11:48:01 51°13.991 2°55.46 23.0229 0.000358 0.00949 -2.871232
2007-04-18 11:49:01 51°13.991 2°55.459 22.9792 0.000358 0.009497 -2.871232
2007-04-18 11:50:01 51°13.991 2°55.46 22.97 0.000358 0.009502 -2.871232
2007-04-18 11:51:01 51°13.991 2°55.46 22.9557 0.000358 0.009509 -2.871232
2007-04-18 11:52:01 51°13.99 2°55.459 22.917 0.000358 0.009515 -2.871232
2007-04-18 11:53:01 51°13.991 2°55.459 22.9048 0.000358 0.009521 -2.871232
2007-04-18 11:54:01 51°13.991 2°55.46 22.8948 0.000358 0.009526 -2.871232
2007-04-18 11:55:01 51°13.991 2°55.459 22.8694 0.000358 0.009531 -2.871232
2007-04-18 11:56:01 51°13.991 2°55.459 22.8456 0.000358 0.009537 -2.871232
2007-04-18 11:57:01 51°13.991 2°55.459 22.8315 0.000358 0.009542 -2.871232
2007-04-18 11:58:01 51°13.99 2°55.459 22.8038 0.000358 0.009547 -2.871232
2007-04-18 11:59:01 51°13.99 2°55.459 22.7711 0.000358 0.009553 -2.871232
2007-04-18 12:00:01 51°13.99 2°55.459 22.7623 0.000358 0.009557 -2.871232
2007-04-18 12:01:01 51°13.99 2°55.459 22.7476 0.000358 0.009563 -2.871232
2007-04-18 12:02:01 51°13.99 2°55.46 22.7285 0.000358 0.009568 -2.871232
2007-04-18 12:03:01 51°13.99 2°55.46 22.7234 0.000358 0.009573 -2.871232
2007-04-18 12:04:01 51°13.991 2°55.46 22.6849 0.000358 0.009578 -2.871232
2007-04-18 12:05:01 51°13.991 2°55.46 22.6791 0.000358 0.009583 -2.871232
2007-04-18 12:06:01 51°13.991 2°55.459 22.6504 0.000358 0.009588 -2.871232
2007-04-18 12:07:01 51°13.991 2°55.459 22.6383 0.000358 0.009592 -2.871232
2007-04-18 12:08:01 51°13.991 2°55.459 22.6141 0.000358 0.009597 -2.871232
2007-04-18 12:09:01 51°13.991 2°55.459 22.603 0.000358 0.009602 -2.871232
2007-04-18 12:10:01 51°13.991 2°55.459 22.5953 0.000358 0.009608 -2.871232
2007-04-18 12:11:01 51°13.991 2°55.459 22.5764 0.000358 0.009613 -2.871232
2007-04-18 12:12:01 51°13.992 2°55.459 22.5654 0.000358 0.009618 -2.871232
2007-04-18 12:13:01 51°13.992 2°55.458 22.5395 0.000358 0.009623 -2.871232
2007-04-18 12:14:01 51°13.992 2°55.458 22.524 0.000358 0.009628 -2.871232
2007-04-18 12:15:01 51°13.991 2°55.458 22.5016 0.000358 0.009633 -2.871232
2007-04-18 12:16:01 51°13.991 2°55.458 22.4923 0.000358 0.009638 -2.871232
2007-04-18 12:17:01 51°13.991 2°55.458 22.4703 0.000358 0.009643 -2.871232
2007-04-18 12:18:01 51°13.991 2°55.459 22.4597 0.000358 0.009648 -2.871232
2007-04-18 12:19:01 51°13.991 2°55.459 22.4376 0.000358 0.009653 -2.871232
2007-04-18 12:20:01 51°13.991 2°55.458 22.4267 0.000358 0.009657 -2.871232
2007-04-18 12:21:01 51°13.991 2°55.458 22.4088 0.000358 0.009662 -2.871232
2007-04-18 12:22:01 51°13.991 2°55.458 22.4033 0.000358 0.009667 -2.871232
2007-04-18 12:23:01 51°13.991 2°55.459 22.3786 0.000358 0.009671 -2.871232
2007-04-18 12:24:01 51°13.991 2°55.459 22.3745 0.000358 0.009676 -2.871232
2007-04-18 12:25:01 51°13.991 2°55.459 22.35 0.000358 0.009681 -2.871232
2007-04-18 12:26:01 51°13.991 2°55.46 22.3438 0.000358 0.009686 -2.871232
2007-04-18 12:27:01 51°13.991 2°55.46 22.3315 0.000358 0.00969 -2.871232
2007-04-18 12:28:01 51°13.991 2°55.459 22.3116 0.000358 0.009695 -2.871232
2007-04-18 12:29:01 51°13.991 2°55.459 22.3029 0.000358 0.0097 -2.871232
2007-04-18 12:30:01 51°13.991 2°55.458 22.2952 0.000358 0.009704 -2.871232
2007-04-18 12:31:01 51°13.991 2°55.458 22.2762 0.000358 0.009708 -2.871232
2007-04-18 12:32:01 51°13.991 2°55.459 22.2633 0.000358 0.009713 -2.871232
2007-04-18 12:33:01 51°13.994 2°55.459 22.2632 0.000358 0.009717 -2.871232
2007-04-18 12:34:01 51°14.011 2°55.452 22.2376 0.000358 0.009721 -2.871232
2007-04-18 12:35:01 51°14.015 2°55.452 22.2273 0.000358 0.009726 -2.871232
2007-04-18 12:36:01 51°13.988 2°55.482 22.2137 0.000358 0.00973 -2.871232
2007-04-18 12:37:01 51°13.916 2°55.549 22.2142 0.000358 0.009735 -2.871232
2007-04-18 12:38:01 51°13.825 2°55.633 22.2099 0.000358 0.00974 -2.871232
2007-04-18 12:39:01 51°13.753 2°55.722 22.1936 0.000358 0.009745 -2.871232
2007-04-18 12:40:01 51°13.694 2°55.817 22.1595 0.000358 0.00975 -2.871232
2007-04-18 12:41:01 51°13.651 2°55.907 22.1638 0.000358 0.009755 -2.871232
2007-04-18 12:42:01 51°13.62 2°55.985 22.1574 0.000358 0.00976 -2.871232
2007-04-18 12:43:01 51°13.599 2°56.051 22.1504 0.000358 0.009766 -2.871232
2007-04-18 12:44:01 51°13.591 2°56.099 22.1584 0.000358 0.009771 -2.871232
2007-04-18 12:45:01 51°13.587 2°56.115 22.1408 0.000358 0.009776 -2.871232
2007-04-18 12:46:01 51°13.584 2°56.123 22.1144 0.000358 0.00978 -2.871232